createdAt,value
2023-02-08T00:01:19.712Z,5.17
2023-02-08T00:03:48.158Z,5.63
2023-02-08T00:06:16.401Z,5.30
2023-02-08T00:08:44.712Z,5.70
2023-02-08T00:11:15.293Z,5.53
2023-02-08T00:13:43.623Z,5.83
2023-02-08T00:16:12.505Z,5.83
2023-02-08T00:18:40.707Z,6.30
2023-02-08T00:21:10.339Z,6.70
2023-02-08T00:23:37.978Z,5.93
2023-02-08T00:26:06.002Z,6.00
2023-02-08T00:28:35.292Z,5.73
2023-02-08T00:31:03.190Z,6.43
2023-02-08T00:33:31.018Z,6.60
2023-02-08T00:36:00.874Z,5.70
2023-02-08T00:38:28.949Z,6.47
2023-02-08T00:40:56.941Z,6.77
2023-02-08T00:43:24.794Z,6.17
2023-02-08T00:45:56.953Z,6.03
2023-02-08T00:48:24.999Z,5.83
2023-02-08T00:51:00.688Z,6.03
2023-02-08T00:53:29.056Z,6.07
2023-02-08T00:55:57.591Z,5.43
2023-02-08T00:58:25.373Z,5.80
2023-02-08T01:00:54.069Z,5.43
2023-02-08T01:03:25.242Z,5.60
2023-02-08T01:05:54.492Z,5.87
2023-02-08T01:08:22.527Z,6.23
2023-02-08T01:10:50.350Z,5.40
2023-02-08T01:13:18.495Z,5.40
2023-02-08T01:15:46.353Z,6.03
2023-02-08T01:18:14.120Z,6.00
2023-02-08T01:20:43.913Z,5.93
2023-02-08T01:23:11.918Z,5.57
2023-02-08T01:25:39.655Z,5.53
2023-02-08T01:28:07.415Z,5.50
2023-02-08T01:30:38.051Z,5.33
2023-02-08T01:33:05.803Z,5.50
2023-02-08T01:35:33.479Z,5.50
2023-02-08T01:38:03.025Z,5.80
2023-02-08T01:40:31.696Z,5.73
2023-02-08T01:42:59.880Z,5.67
2023-02-08T01:45:30.829Z,5.50
2023-02-08T01:48:05.389Z,5.90
2023-02-08T01:50:37.765Z,5.80
2023-02-08T01:53:07.484Z,5.27
2023-02-08T01:55:38.432Z,5.47
2023-02-08T01:58:10.168Z,6.10
2023-02-08T02:00:38.231Z,5.50
2023-02-08T02:03:08.368Z,5.23
2023-02-08T02:05:41.239Z,5.10
2023-02-08T02:08:11.252Z,5.30
2023-02-08T02:10:40.973Z,5.93
2023-02-08T02:13:13.132Z,5.60
2023-02-08T02:15:41.127Z,5.63
2023-02-08T02:18:10.064Z,5.00
2023-02-08T02:20:53.316Z,5.73
2023-02-08T02:23:56.794Z,5.70
2023-02-08T02:26:55.175Z,5.37
2023-02-08T02:29:56.109Z,5.40
2023-02-08T02:32:43.899Z,5.53
2023-02-08T02:35:21.138Z,5.30
2023-02-08T02:37:58.530Z,4.83
2023-02-08T02:40:35.647Z,6.17
2023-02-08T02:43:29.908Z,5.70
2023-02-08T02:46:04.827Z,5.63
2023-02-08T02:48:43.506Z,5.90
2023-02-08T02:51:14.910Z,5.53
2023-02-08T02:53:51.393Z,6.00
2023-02-08T02:56:23.677Z,5.90
2023-02-08T02:58:54.230Z,6.37
2023-02-08T03:01:26.918Z,5.50
2023-02-08T03:03:56.719Z,5.53
2023-02-08T03:06:35.453Z,6.10
2023-02-08T03:09:26.306Z,5.73
2023-02-08T03:12:01.738Z,5.73
2023-02-08T03:14:37.118Z,6.13
2023-02-08T03:17:29.025Z,5.97
2023-02-08T03:20:07.232Z,5.13
2023-02-08T03:22:44.373Z,5.97
2023-02-08T03:25:18.976Z,5.40
2023-02-08T03:27:56.593Z,5.67
2023-02-08T03:30:32.150Z,5.07
2023-02-08T03:33:04.457Z,4.83
2023-02-08T03:35:38.538Z,5.17
2023-02-08T03:38:10.876Z,4.97
2023-02-08T03:40:43.051Z,5.37
2023-02-08T03:43:17.083Z,5.17
2023-02-08T03:45:50.664Z,4.97
2023-02-08T03:48:21.110Z,5.37
2023-02-08T03:50:53.801Z,4.60
2023-02-08T03:53:23.666Z,5.43
2023-02-08T03:55:57.396Z,5.17
2023-02-08T03:58:29.565Z,5.43
2023-02-08T04:01:01.483Z,5.00
2023-02-08T04:03:31.578Z,5.00
2023-02-08T04:06:01.001Z,5.30
2023-02-08T04:08:28.916Z,4.80
2023-02-08T04:11:00.539Z,4.80
2023-02-08T04:13:28.237Z,4.87
2023-02-08T04:15:56.804Z,5.30
2023-02-08T04:18:24.536Z,4.90
2023-02-08T04:20:52.274Z,5.20
2023-02-08T04:23:21.712Z,4.87
2023-02-08T04:25:49.754Z,4.87
2023-02-08T04:28:17.477Z,4.37
2023-02-08T04:30:45.131Z,4.43
2023-02-08T04:33:14.989Z,4.53
2023-02-08T04:35:42.814Z,4.30
2023-02-08T04:38:10.594Z,4.90
2023-02-08T04:40:40.499Z,4.60
2023-02-08T04:43:08.631Z,4.27
2023-02-08T04:45:36.499Z,4.40
2023-02-08T04:48:04.776Z,4.90
2023-02-08T04:50:32.535Z,5.10
2023-02-08T04:53:00.376Z,4.50
2023-02-08T04:55:28.461Z,5.03
2023-02-08T04:57:57.853Z,5.30
2023-02-08T05:00:25.540Z,5.03
2023-02-08T05:02:54.725Z,4.60
2023-02-08T05:05:22.796Z,4.83
2023-02-08T05:07:50.516Z,5.17
2023-02-08T05:10:18.478Z,5.63
2023-02-08T05:12:46.382Z,6.27
2023-02-08T05:15:15.601Z,6.93
2023-02-08T05:17:47.770Z,10.37
2023-02-08T05:20:15.945Z,10.20
2023-02-08T05:22:43.696Z,6.83
2023-02-08T05:25:11.678Z,6.13
2023-02-08T05:27:39.732Z,5.70
2023-02-08T05:30:09.094Z,7.97
2023-02-08T05:32:38.673Z,16.77
2023-02-08T05:35:07.242Z,11.63
2023-02-08T05:37:34.858Z,9.73
2023-02-08T05:40:02.658Z,9.50
2023-02-08T05:42:30.367Z,9.83
2023-02-08T05:44:58.233Z,10.03
2023-02-08T05:47:27.178Z,9.90
2023-02-08T05:49:56.509Z,9.20
2023-02-08T05:52:24.534Z,9.00
2023-02-08T05:54:52.132Z,9.77
2023-02-08T05:57:20.208Z,8.10
2023-02-08T05:59:47.918Z,8.70
2023-02-08T06:02:16.205Z,7.60
2023-02-08T06:04:44.180Z,7.77
2023-02-08T06:07:13.265Z,6.67
2023-02-08T06:09:41.024Z,8.93
2023-02-08T06:12:08.833Z,9.47
2023-02-08T06:14:36.617Z,10.33
2023-02-08T06:17:04.238Z,9.40
2023-02-08T06:19:33.012Z,9.77
2023-02-08T06:22:00.729Z,6.60
2023-02-08T06:24:30.011Z,5.80
2023-02-08T06:26:58.026Z,5.50
2023-02-08T06:29:25.986Z,6.10
2023-02-08T06:31:53.867Z,5.30
2023-02-08T06:34:21.660Z,6.90
2023-02-08T06:36:49.512Z,8.43
2023-02-08T06:39:17.444Z,8.67
2023-02-08T06:41:46.912Z,8.80
2023-02-08T06:44:14.734Z,8.20
2023-02-08T06:46:42.769Z,6.73
2023-02-08T06:49:10.749Z,6.13
2023-02-08T06:51:38.492Z,6.43
2023-02-08T06:54:06.450Z,4.77
2023-02-08T06:56:34.312Z,4.80
2023-02-08T06:59:04.080Z,5.10
2023-02-08T07:01:33.107Z,5.97
2023-02-08T07:04:00.898Z,5.50
2023-02-08T07:06:29.267Z,5.70
2023-02-08T07:08:57.369Z,6.20
2023-02-08T07:11:25.304Z,5.70
2023-02-08T07:13:54.878Z,5.77
2023-02-08T07:16:25.427Z,6.00
2023-02-08T07:18:53.804Z,6.37
2023-02-08T07:21:21.670Z,5.83
2023-02-08T07:23:49.372Z,6.23
2023-02-08T07:26:17.631Z,6.40
2023-02-08T07:28:46.142Z,6.00
2023-02-08T07:31:16.260Z,5.83
2023-02-08T07:33:45.967Z,5.50
2023-02-08T07:36:14.312Z,5.67
2023-02-08T07:38:42.138Z,5.73
2023-02-08T07:41:12.175Z,5.73
2023-02-08T07:43:41.690Z,5.83
2023-02-08T07:46:10.974Z,5.70
2023-02-08T07:48:40.335Z,5.13
2023-02-08T07:51:10.941Z,5.03
2023-02-08T07:53:39.925Z,5.07
2023-02-08T07:56:10.443Z,5.50
2023-02-08T07:58:39.048Z,5.57
2023-02-08T08:01:20.967Z,5.40
2023-02-08T08:03:49.774Z,6.20
2023-02-08T08:06:20.583Z,5.57
2023-02-08T08:08:48.865Z,5.20
2023-02-08T08:11:17.451Z,6.17
2023-02-08T08:13:45.490Z,6.13
2023-02-08T08:16:14.032Z,6.00
2023-02-08T08:18:41.869Z,6.10
2023-02-08T08:21:10.518Z,5.50
2023-02-08T08:23:39.631Z,4.77
2023-02-08T08:26:09.159Z,5.03
2023-02-08T08:28:37.288Z,4.90
2023-02-08T08:31:10.138Z,5.13
2023-02-08T08:33:39.236Z,4.87
2023-02-08T08:36:07.667Z,5.00
2023-02-08T08:38:35.585Z,5.67
2023-02-08T08:41:09.575Z,5.43
2023-02-08T08:43:37.432Z,5.13
2023-02-08T08:46:07.357Z,5.00
2023-02-08T08:48:35.489Z,5.40
2023-02-08T08:51:03.353Z,4.90
2023-02-08T08:53:31.402Z,5.30
2023-02-08T08:56:00.017Z,5.53
2023-02-08T08:58:29.828Z,5.87
2023-02-08T09:00:58.454Z,5.50
2023-02-08T09:03:26.686Z,5.80
2023-02-08T09:05:54.516Z,5.77
2023-02-08T09:08:22.316Z,6.27
2023-02-08T09:10:50.184Z,6.23
2023-02-08T09:13:19.785Z,6.33
2023-02-08T09:15:51.287Z,6.20
2023-02-08T09:18:19.100Z,5.40
2023-02-08T09:20:47.035Z,6.00
2023-02-08T09:23:15.211Z,6.60
2023-02-08T09:25:43.290Z,6.53
2023-02-08T09:28:11.301Z,6.70
2023-02-08T09:30:39.347Z,6.10
2023-02-08T09:33:08.880Z,5.40
2023-02-08T09:35:36.507Z,5.40
2023-02-08T09:38:05.725Z,5.37
2023-02-08T09:40:43.068Z,5.40
2023-02-08T09:43:20.258Z,6.13
2023-02-08T09:45:59.903Z,5.67
2023-02-08T09:48:34.387Z,5.23
2023-02-08T09:51:08.408Z,6.07
2023-02-08T09:53:40.385Z,5.63
2023-02-08T09:56:13.649Z,5.93
2023-02-08T09:58:44.820Z,5.53
2023-02-08T10:01:20.336Z,6.03
2023-02-08T10:03:53.175Z,5.80
2023-02-08T10:06:22.005Z,5.17
2023-02-08T10:08:52.515Z,5.50
2023-02-08T10:11:40.754Z,4.73
2023-02-08T10:14:31.838Z,5.00
2023-02-08T10:17:11.311Z,5.33
2023-02-08T10:20:03.177Z,4.97
2023-02-08T10:22:42.216Z,4.80
2023-02-08T10:25:29.024Z,4.33
2023-02-08T10:28:15.268Z,3.97
2023-02-08T10:30:50.677Z,4.07
2023-02-08T10:33:22.381Z,3.93
2023-02-08T10:35:52.776Z,4.10
2023-02-08T10:38:37.199Z,4.73
2023-02-08T10:41:18.248Z,3.97
2023-02-08T10:43:50.965Z,4.00
2023-02-08T10:46:25.749Z,3.87
2023-02-08T10:49:08.363Z,4.07
2023-02-08T10:51:39.304Z,3.70
2023-02-08T10:54:07.451Z,3.50
2023-02-08T10:56:42.071Z,3.73
2023-02-08T10:59:17.673Z,3.80
2023-02-08T11:01:47.518Z,3.60
2023-02-08T11:04:16.445Z,3.80
2023-02-08T11:06:47.132Z,3.30
2023-02-08T11:09:23.841Z,3.27
2023-02-08T11:11:52.795Z,3.27
2023-02-08T11:14:30.401Z,3.47
2023-02-08T11:17:05.608Z,3.50
2023-02-08T11:19:36.695Z,3.50
2023-02-08T11:22:07.128Z,2.97
2023-02-08T11:24:40.203Z,3.30
2023-02-08T11:27:19.109Z,3.20
2023-02-08T11:29:48.065Z,3.30
2023-02-08T11:32:18.444Z,3.40
2023-02-08T11:34:46.307Z,3.50
2023-02-08T11:37:21.190Z,3.57
2023-02-08T11:39:54.632Z,3.20
2023-02-08T11:42:26.334Z,2.93
2023-02-08T11:44:55.198Z,3.17
2023-02-08T11:47:26.233Z,2.73
2023-02-08T11:49:56.876Z,2.97
2023-02-08T11:52:30.728Z,2.67
2023-02-08T11:55:16.910Z,2.60
2023-02-08T11:57:54.386Z,2.80
2023-02-08T12:00:25.439Z,2.87
2023-02-08T12:02:59.671Z,2.80
2023-02-08T12:05:37.606Z,2.93
2023-02-08T12:08:12.514Z,2.90
2023-02-08T12:11:08.536Z,2.70
2023-02-08T12:13:54.026Z,2.60
2023-02-08T12:16:38.251Z,2.50
2023-02-08T12:19:26.007Z,2.70
2023-02-08T12:22:01.853Z,2.43
2023-02-08T12:24:39.745Z,2.50
2023-02-08T12:27:27.199Z,2.60
2023-02-08T12:30:02.566Z,2.90
2023-02-08T12:33:02.579Z,2.90
2023-02-08T12:36:06.540Z,2.80
2023-02-08T12:39:18.380Z,2.50
2023-02-08T12:42:02.358Z,2.30
2023-02-08T12:44:37.832Z,2.40
2023-02-08T12:47:18.387Z,2.30
2023-02-08T12:50:04.430Z,2.30
2023-02-08T12:52:37.797Z,2.47
2023-02-08T12:55:15.093Z,2.47
2023-02-08T12:57:46.754Z,1.90
2023-02-08T13:00:21.951Z,1.87
2023-02-08T13:02:57.767Z,2.43
2023-02-08T13:05:31.134Z,2.23
2023-02-08T13:08:04.791Z,2.47
2023-02-08T13:10:37.731Z,2.33
2023-02-08T13:13:15.732Z,2.30
2023-02-08T13:15:48.437Z,2.40
2023-02-08T13:18:19.804Z,2.03
2023-02-08T13:20:50.877Z,2.20
2023-02-08T13:23:25.962Z,2.10
2023-02-08T13:25:57.290Z,1.90
2023-02-08T13:28:30.581Z,2.07
2023-02-08T13:31:05.388Z,2.00
2023-02-08T13:33:42.662Z,2.20
2023-02-08T13:36:24.227Z,2.00
2023-02-08T13:38:52.940Z,2.03
2023-02-08T13:41:23.779Z,2.10
2023-02-08T13:43:55.960Z,2.00
2023-02-08T13:46:25.755Z,1.87
2023-02-08T13:48:56.722Z,1.83
2023-02-08T13:51:53.949Z,2.03
2023-02-08T13:54:22.315Z,1.90
2023-02-08T13:56:52.056Z,1.80
2023-02-08T13:59:34.360Z,1.93
2023-02-08T14:02:23.610Z,1.90
2023-02-08T14:04:52.069Z,2.10
2023-02-08T14:07:39.766Z,2.10
2023-02-08T14:10:18.726Z,2.07
2023-02-08T14:12:52.512Z,2.10
2023-02-08T14:15:34.962Z,2.00
2023-02-08T14:18:03.355Z,2.17
2023-02-08T14:20:39.659Z,2.10
2023-02-08T14:23:21.614Z,2.40
2023-02-08T14:25:52.268Z,2.07
2023-02-08T14:28:27.246Z,2.27
2023-02-08T14:30:59.663Z,2.33
2023-02-08T14:33:30.655Z,2.53
2023-02-08T14:36:00.724Z,2.37
2023-02-08T14:38:54.588Z,2.50
2023-02-08T14:41:45.921Z,2.37
2023-02-08T14:44:55.567Z,2.50
2023-02-08T14:48:04.155Z,2.40
2023-02-08T14:50:42.301Z,2.50
2023-02-08T14:53:43.796Z,2.70
2023-02-08T14:56:19.199Z,2.67
2023-02-08T14:58:49.663Z,2.70
2023-02-08T15:01:20.951Z,2.70
2023-02-08T15:03:51.635Z,2.90
2023-02-08T15:07:05.089Z,2.50
2023-02-08T15:09:38.802Z,2.60
2023-02-08T15:12:10.060Z,3.07
2023-02-08T15:14:41.538Z,3.27
2023-02-08T15:17:21.082Z,3.47
2023-02-08T15:19:48.984Z,3.60
2023-02-08T15:22:30.735Z,3.00
2023-02-08T15:25:01.753Z,2.87
2023-02-08T15:27:32.154Z,3.00
2023-02-08T15:30:00.869Z,3.20
2023-02-08T15:32:30.728Z,3.00
2023-02-08T15:35:00.380Z,2.70
2023-02-08T15:37:31.131Z,2.83
2023-02-08T15:40:01.721Z,3.03
2023-02-08T15:42:31.041Z,2.97
2023-02-08T15:45:00.798Z,2.93
2023-02-08T15:47:33.092Z,2.80
2023-02-08T15:50:02.636Z,3.00
2023-02-08T15:52:34.065Z,2.80
2023-02-08T15:55:03.473Z,3.00
2023-02-08T15:57:37.074Z,3.00
2023-02-08T16:00:08.814Z,3.03
2023-02-08T16:02:36.693Z,2.93
2023-02-08T16:05:17.537Z,2.70
2023-02-08T16:07:47.839Z,3.03
2023-02-08T16:10:26.498Z,3.10
2023-02-08T16:12:57.981Z,3.00
2023-02-08T16:15:36.751Z,3.30
2023-02-08T16:18:05.773Z,3.10
2023-02-08T16:20:36.947Z,3.03
2023-02-08T16:23:24.450Z,3.00
2023-02-08T16:25:54.352Z,3.20
2023-02-08T16:28:28.091Z,3.13
2023-02-08T16:30:56.936Z,3.50
2023-02-08T16:33:26.256Z,3.77
2023-02-08T16:36:01.724Z,4.53
2023-02-08T16:38:31.433Z,6.97
2023-02-08T16:41:12.479Z,6.77
2023-02-08T16:43:44.297Z,9.50
2023-02-08T16:46:25.307Z,24.37
2023-02-08T16:48:55.419Z,8.07
2023-02-08T16:51:26.395Z,5.03
2023-02-08T16:53:57.181Z,5.07
2023-02-08T16:56:27.269Z,4.97
2023-02-08T16:58:55.057Z,4.17
2023-02-08T17:01:24.524Z,3.87
2023-02-08T17:03:53.885Z,4.23
2023-02-08T17:06:29.022Z,4.00
2023-02-08T17:08:57.391Z,4.00
2023-02-08T17:11:27.597Z,4.30
2023-02-08T17:13:55.451Z,4.37
2023-02-08T17:16:24.990Z,6.23
2023-02-08T17:18:53.152Z,4.97
2023-02-08T17:21:22.876Z,5.37
2023-02-08T17:23:51.140Z,4.90
2023-02-08T17:26:22.285Z,5.13
2023-02-08T17:28:52.011Z,4.40
2023-02-08T17:31:20.115Z,4.90
2023-02-08T17:33:50.298Z,4.77
2023-02-08T17:36:18.884Z,5.00
2023-02-08T17:38:49.136Z,5.60
2023-02-08T17:41:18.648Z,5.67
2023-02-08T17:43:47.680Z,4.77
2023-02-08T17:46:18.749Z,5.60
2023-02-08T17:48:48.364Z,5.63
2023-02-08T17:51:20.060Z,5.70
2023-02-08T17:53:48.117Z,5.17
2023-02-08T17:56:18.272Z,5.53
2023-02-08T17:58:48.983Z,5.10
2023-02-08T18:01:23.590Z,6.07
2023-02-08T18:03:53.839Z,5.77
2023-02-08T18:06:23.078Z,5.50
2023-02-08T18:08:50.920Z,5.17
2023-02-08T18:11:21.019Z,4.90
2023-02-08T18:13:51.303Z,5.33
2023-02-08T18:16:22.714Z,5.57
2023-02-08T18:18:50.667Z,5.60
2023-02-08T18:21:20.827Z,5.47
2023-02-08T18:23:50.051Z,5.00
2023-02-08T18:26:19.808Z,5.20
2023-02-08T18:28:50.477Z,6.40
2023-02-08T18:31:21.207Z,6.00
2023-02-08T18:33:50.613Z,5.40
2023-02-08T18:36:20.801Z,5.40
2023-02-08T18:38:51.185Z,5.50
2023-02-08T18:41:21.520Z,5.37
2023-02-08T18:43:50.036Z,4.77
2023-02-08T18:46:23.278Z,5.10
2023-02-08T18:48:51.790Z,4.83
2023-02-08T18:51:20.579Z,4.50
2023-02-08T18:53:51.029Z,4.93
2023-02-08T18:56:21.440Z,4.80
2023-02-08T18:58:49.237Z,4.57
2023-02-08T19:01:19.492Z,4.50
2023-02-08T19:03:49.525Z,4.50
2023-02-08T19:06:22.500Z,4.37
2023-02-08T19:08:52.974Z,4.37
2023-02-08T19:11:23.386Z,4.00
2023-02-08T19:13:52.229Z,4.03
2023-02-08T19:16:22.229Z,4.37
2023-02-08T19:18:53.784Z,3.77
2023-02-08T19:21:21.831Z,4.60
2023-02-08T19:23:51.930Z,4.00
2023-02-08T19:26:21.891Z,4.50
2023-02-08T19:28:49.651Z,4.07
2023-02-08T19:31:19.921Z,4.60
2023-02-08T19:33:49.510Z,4.30
2023-02-08T19:36:21.031Z,4.53
2023-02-08T19:38:50.501Z,4.83
2023-02-08T19:41:20.594Z,4.50
2023-02-08T19:43:49.308Z,4.77
2023-02-08T19:46:23.295Z,5.00
2023-02-08T19:48:51.896Z,5.20
2023-02-08T19:51:21.357Z,5.27
2023-02-08T19:53:49.756Z,5.10
2023-02-08T19:56:20.409Z,4.73
2023-02-08T19:58:48.870Z,4.13
2023-02-08T20:01:20.308Z,4.97
2023-02-08T20:03:49.593Z,5.17
2023-02-08T20:06:19.394Z,4.87
2023-02-08T20:08:50.404Z,4.83
2023-02-08T20:11:19.600Z,5.30
2023-02-08T20:13:47.644Z,5.43
2023-02-08T20:16:15.735Z,5.10
2023-02-08T20:18:43.979Z,5.57
2023-02-08T20:21:12.051Z,6.70
2023-02-08T20:23:40.505Z,7.10
2023-02-08T20:26:12.518Z,5.90
2023-02-08T20:28:44.724Z,5.60
2023-02-08T20:31:14.606Z,5.73
2023-02-08T20:33:42.658Z,5.10
2023-02-08T20:36:12.803Z,5.37
2023-02-08T20:38:41.103Z,5.43
2023-02-08T20:41:13.434Z,4.97
2023-02-08T20:43:42.550Z,5.30
2023-02-08T20:46:13.432Z,5.20
2023-02-08T20:48:41.521Z,4.73
2023-02-08T20:51:11.634Z,5.03
2023-02-08T20:53:40.584Z,4.47
2023-02-08T20:56:12.297Z,4.80
2023-02-08T20:58:40.590Z,4.70
2023-02-08T21:01:09.868Z,4.90
2023-02-08T21:03:37.810Z,5.03
2023-02-08T21:06:13.068Z,4.93
2023-02-08T21:08:41.026Z,4.87
2023-02-08T21:11:13.238Z,5.13
2023-02-08T21:13:41.024Z,4.90
2023-02-08T21:16:10.133Z,4.97
2023-02-08T21:18:40.950Z,5.20
2023-02-08T21:21:09.521Z,4.80
2023-02-08T21:23:37.771Z,4.83
2023-02-08T21:26:07.181Z,4.73
2023-02-08T21:28:36.781Z,4.53
2023-02-08T21:31:07.868Z,5.27
2023-02-08T21:33:36.208Z,4.63
2023-02-08T21:36:05.045Z,5.13
2023-02-08T21:38:32.948Z,5.67
2023-02-08T21:41:00.935Z,5.70
2023-02-08T21:43:28.776Z,5.33
2023-02-08T21:46:02.978Z,5.23
2023-02-08T21:48:30.578Z,5.30
2023-02-08T21:51:18.987Z,4.97
2023-02-08T21:54:04.194Z,4.90
2023-02-08T21:56:32.086Z,5.30
2023-02-08T21:59:00.017Z,5.47
2023-02-08T22:01:29.163Z,5.07
2023-02-08T22:03:56.781Z,5.07
2023-02-08T22:06:24.540Z,5.30
2023-02-08T22:08:53.792Z,5.10
2023-02-08T22:11:22.613Z,4.73
2023-02-08T22:13:50.479Z,4.83
2023-02-08T22:16:18.486Z,5.20
2023-02-08T22:18:48.868Z,5.10
2023-02-08T22:21:17.885Z,5.17
2023-02-08T22:23:45.753Z,4.90
2023-02-08T22:26:15.141Z,5.03
2023-02-08T22:28:42.871Z,5.47
2023-02-08T22:31:11.495Z,4.97
2023-02-08T22:33:39.597Z,5.27
2023-02-08T22:36:12.247Z,4.53
2023-02-08T22:38:40.801Z,4.97
2023-02-08T22:41:12.410Z,4.90
2023-02-08T22:43:40.866Z,5.03
2023-02-08T22:46:09.162Z,5.37
2023-02-08T22:48:38.207Z,5.50
2023-02-08T22:51:09.028Z,5.60
2023-02-08T22:53:37.593Z,5.33
2023-02-08T22:56:06.238Z,5.30
2023-02-08T22:58:34.456Z,5.30
2023-02-08T23:01:02.359Z,5.43
2023-02-08T23:03:30.041Z,5.10
2023-02-08T23:05:57.793Z,5.87
2023-02-08T23:08:27.384Z,6.00
2023-02-08T23:10:59.607Z,5.10
2023-02-08T23:13:29.721Z,5.50
2023-02-08T23:15:58.065Z,5.70
2023-02-08T23:18:26.593Z,5.10
2023-02-08T23:20:55.463Z,5.70
2023-02-08T23:23:23.292Z,5.10
2023-02-08T23:25:53.943Z,5.70
2023-02-08T23:28:21.955Z,5.87
2023-02-08T23:30:49.700Z,5.20
2023-02-08T23:33:17.402Z,5.47
2023-02-08T23:35:45.340Z,5.13
2023-02-08T23:38:12.952Z,4.97
2023-02-08T23:40:41.417Z,5.13
2023-02-08T23:43:10.953Z,4.40
2023-02-08T23:45:38.935Z,5.80
2023-02-08T23:48:07.207Z,5.50
2023-02-08T23:50:36.391Z,5.43
2023-02-08T23:53:04.343Z,4.87
2023-02-08T23:55:33.871Z,5.43
2023-02-08T23:58:01.609Z,5.70
